sensor_id;sensor_type;location;lat;lon;timestamp;temperature;humidity
46926;DHT22;32667;48.248;-1.700;2022-12-24T00:00:23;13.10;77.60
46926;DHT22;32667;48.248;-1.700;2022-12-24T00:02:50;13.10;78.20
46926;DHT22;32667;48.248;-1.700;2022-12-24T00:05:16;13.10;77.60
46926;DHT22;32667;48.248;-1.700;2022-12-24T00:07:44;13.10;77.60
46926;DHT22;32667;48.248;-1.700;2022-12-24T00:10:10;13.10;77.50
46926;DHT22;32667;48.248;-1.700;2022-12-24T00:12:36;13.10;77.50
46926;DHT22;32667;48.248;-1.700;2022-12-24T00:15:03;13.20;77.50
46926;DHT22;32667;48.248;-1.700;2022-12-24T00:17:30;13.20;77.40
46926;DHT22;32667;48.248;-1.700;2022-12-24T00:19:56;13.20;77.40
46926;DHT22;32667;48.248;-1.700;2022-12-24T00:22:21;13.20;77.50
46926;DHT22;32667;48.248;-1.700;2022-12-24T00:24:47;13.20;77.50
46926;DHT22;32667;48.248;-1.700;2022-12-24T00:27:13;13.20;77.40
46926;DHT22;32667;48.248;-1.700;2022-12-24T00:29:38;13.30;77.50
46926;DHT22;32667;48.248;-1.700;2022-12-24T00:32:04;13.20;77.40
46926;DHT22;32667;48.248;-1.700;2022-12-24T00:34:35;13.30;77.40
46926;DHT22;32667;48.248;-1.700;2022-12-24T00:37:01;13.30;77.70
46926;DHT22;32667;48.248;-1.700;2022-12-24T00:39:26;13.30;77.20
46926;DHT22;32667;48.248;-1.700;2022-12-24T00:41:52;13.30;77.10
46926;DHT22;32667;48.248;-1.700;2022-12-24T00:44:18;13.30;77.20
46926;DHT22;32667;48.248;-1.700;2022-12-24T00:46:44;13.30;77.30
46926;DHT22;32667;48.248;-1.700;2022-12-24T00:49:11;13.30;77.30
46926;DHT22;32667;48.248;-1.700;2022-12-24T00:51:37;13.30;77.30
46926;DHT22;32667;48.248;-1.700;2022-12-24T00:54:04;13.30;77.40
46926;DHT22;32667;48.248;-1.700;2022-12-24T00:56:30;13.30;77.40
46926;DHT22;32667;48.248;-1.700;2022-12-24T00:58:56;13.30;77.40
46926;DHT22;32667;48.248;-1.700;2022-12-24T01:01:22;13.30;77.40
46926;DHT22;32667;48.248;-1.700;2022-12-24T01:03:48;13.20;77.50
46926;DHT22;32667;48.248;-1.700;2022-12-24T01:06:18;13.30;77.60
46926;DHT22;32667;48.248;-1.700;2022-12-24T01:08:44;13.20;77.50
46926;DHT22;32667;48.248;-1.700;2022-12-24T01:11:11;13.20;77.60
46926;DHT22;32667;48.248;-1.700;2022-12-24T01:13:37;13.20;77.60
46926;DHT22;32667;48.248;-1.700;2022-12-24T01:16:16;13.20;77.50
46926;DHT22;32667;48.248;-1.700;2022-12-24T01:18:42;13.30;77.50
46926;DHT22;32667;48.248;-1.700;2022-12-24T01:21:07;13.30;77.40
46926;DHT22;32667;48.248;-1.700;2022-12-24T01:23:33;13.30;77.40
46926;DHT22;32667;48.248;-1.700;2022-12-24T01:26:01;13.20;77.40
46926;DHT22;32667;48.248;-1.700;2022-12-24T01:28:27;13.20;77.50
46926;DHT22;32667;48.248;-1.700;2022-12-24T01:30:53;13.20;77.50
46926;DHT22;32667;48.248;-1.700;2022-12-24T01:33:18;13.20;77.50
46926;DHT22;32667;48.248;-1.700;2022-12-24T01:35:47;13.20;77.50
46926;DHT22;32667;48.248;-1.700;2022-12-24T01:38:13;13.20;77.50
46926;DHT22;32667;48.248;-1.700;2022-12-24T01:40:41;13.20;77.50
46926;DHT22;32667;48.248;-1.700;2022-12-24T01:43:28;13.20;77.50
46926;DHT22;32667;48.248;-1.700;2022-12-24T01:53:41;13.20;77.60
46926;DHT22;32667;48.248;-1.700;2022-12-24T01:56:08;13.20;77.60
46926;DHT22;32667;48.248;-1.700;2022-12-24T01:58:37;13.10;77.60
46926;DHT22;32667;48.248;-1.700;2022-12-24T02:01:04;13.10;77.80
46926;DHT22;32667;48.248;-1.700;2022-12-24T02:03:31;13.10;77.70
46926;DHT22;32667;48.248;-1.700;2022-12-24T02:05:57;13.20;78.30
46926;DHT22;32667;48.248;-1.700;2022-12-24T02:08:23;13.20;77.60
46926;DHT22;32667;48.248;-1.700;2022-12-24T02:11:09;13.20;77.50
46926;DHT22;32667;48.248;-1.700;2022-12-24T02:13:37;13.20;77.50
46926;DHT22;32667;48.248;-1.700;2022-12-24T02:16:16;13.20;77.50
46926;DHT22;32667;48.248;-1.700;2022-12-24T02:19:14;13.10;77.60
46926;DHT22;32667;48.248;-1.700;2022-12-24T02:22:00;13.20;77.60
46926;DHT22;32667;48.248;-1.700;2022-12-24T02:27:25;13.20;77.40
46926;DHT22;32667;48.248;-1.700;2022-12-24T02:33:14;13.30;77.30
46926;DHT22;32667;48.248;-1.700;2022-12-24T02:38:34;13.30;77.20
46926;DHT22;32667;48.248;-1.700;2022-12-24T02:41:10;13.30;77.10
46926;DHT22;32667;48.248;-1.700;2022-12-24T02:43:40;13.40;77.20
46926;DHT22;32667;48.248;-1.700;2022-12-24T02:46:25;13.30;77.10
46926;DHT22;32667;48.248;-1.700;2022-12-24T02:48:52;13.30;77.10
46926;DHT22;32667;48.248;-1.700;2022-12-24T02:51:23;13.40;77.20
46926;DHT22;32667;48.248;-1.700;2022-12-24T02:53:49;13.40;77.30
46926;DHT22;32667;48.248;-1.700;2022-12-24T03:10:33;13.30;77.10
46926;DHT22;32667;48.248;-1.700;2022-12-24T03:13:13;13.30;77.10
46926;DHT22;32667;48.248;-1.700;2022-12-24T03:15:40;13.30;77.30
46926;DHT22;32667;48.248;-1.700;2022-12-24T03:18:08;13.30;77.30
46926;DHT22;32667;48.248;-1.700;2022-12-24T03:20:47;13.30;77.30
46926;DHT22;32667;48.248;-1.700;2022-12-24T03:23:15;13.40;77.30
46926;DHT22;32667;48.248;-1.700;2022-12-24T03:25:43;13.30;77.20
46926;DHT22;32667;48.248;-1.700;2022-12-24T03:28:11;13.40;77.20
46926;DHT22;32667;48.248;-1.700;2022-12-24T03:30:43;13.40;77.20
46926;DHT22;32667;48.248;-1.700;2022-12-24T03:33:10;13.40;77.30
46926;DHT22;32667;48.248;-1.700;2022-12-24T03:35:36;13.40;77.20
46926;DHT22;32667;48.248;-1.700;2022-12-24T03:38:02;13.40;77.20
46926;DHT22;32667;48.248;-1.700;2022-12-24T03:40:29;13.40;77.30
46926;DHT22;32667;48.248;-1.700;2022-12-24T03:42:55;13.40;77.20
46926;DHT22;32667;48.248;-1.700;2022-12-24T03:45:21;13.40;77.20
46926;DHT22;32667;48.248;-1.700;2022-12-24T03:47:47;13.40;77.20
46926;DHT22;32667;48.248;-1.700;2022-12-24T03:50:12;13.40;77.20
46926;DHT22;32667;48.248;-1.700;2022-12-24T03:52:38;13.40;77.20
46926;DHT22;32667;48.248;-1.700;2022-12-24T03:55:04;13.40;77.20
46926;DHT22;32667;48.248;-1.700;2022-12-24T03:57:30;13.40;77.20
46926;DHT22;32667;48.248;-1.700;2022-12-24T03:59:59;13.40;77.20
46926;DHT22;32667;48.248;-1.700;2022-12-24T04:02:25;13.40;77.30
46926;DHT22;32667;48.248;-1.700;2022-12-24T04:04:50;13.40;77.40
46926;DHT22;32667;48.248;-1.700;2022-12-24T04:07:16;13.40;77.30
46926;DHT22;32667;48.248;-1.700;2022-12-24T04:09:42;13.40;77.40
46926;DHT22;32667;48.248;-1.700;2022-12-24T04:12:08;13.40;77.30
46926;DHT22;32667;48.248;-1.700;2022-12-24T04:14:35;13.50;77.30
46926;DHT22;32667;48.248;-1.700;2022-12-24T04:17:01;13.50;77.20
46926;DHT22;32667;48.248;-1.700;2022-12-24T04:19:26;13.50;77.20
46926;DHT22;32667;48.248;-1.700;2022-12-24T04:21:52;13.50;77.20
46926;DHT22;32667;48.248;-1.700;2022-12-24T04:24:20;13.50;77.20
46926;DHT22;32667;48.248;-1.700;2022-12-24T04:26:45;13.50;77.20
46926;DHT22;32667;48.248;-1.700;2022-12-24T04:29:12;13.50;77.20
46926;DHT22;32667;48.248;-1.700;2022-12-24T04:31:37;13.50;77.20
46926;DHT22;32667;48.248;-1.700;2022-12-24T04:34:03;13.40;77.20
46926;DHT22;32667;48.248;-1.700;2022-12-24T04:36:29;13.40;77.30
46926;DHT22;32667;48.248;-1.700;2022-12-24T04:38:54;13.40;77.40
46926;DHT22;32667;48.248;-1.700;2022-12-24T04:41:23;13.30;77.50
46926;DHT22;32667;48.248;-1.700;2022-12-24T04:43:49;13.20;77.50
46926;DHT22;32667;48.248;-1.700;2022-12-24T04:46:18;13.30;77.70
46926;DHT22;32667;48.248;-1.700;2022-12-24T04:48:49;13.20;77.80
46926;DHT22;32667;48.248;-1.700;2022-12-24T04:51:16;13.30;77.70
46926;DHT22;32667;48.248;-1.700;2022-12-24T04:53:42;13.30;77.70
46926;DHT22;32667;48.248;-1.700;2022-12-24T04:56:13;13.30;77.60
46926;DHT22;32667;48.248;-1.700;2022-12-24T04:59:11;13.20;77.50
46926;DHT22;32667;48.248;-1.700;2022-12-24T05:01:39;13.20;77.60
46926;DHT22;32667;48.248;-1.700;2022-12-24T05:04:04;13.20;77.60
46926;DHT22;32667;48.248;-1.700;2022-12-24T05:06:32;13.20;77.60
46926;DHT22;32667;48.248;-1.700;2022-12-24T05:08:59;13.10;77.70
46926;DHT22;32667;48.248;-1.700;2022-12-24T05:11:25;13.10;77.70
46926;DHT22;32667;48.248;-1.700;2022-12-24T05:13:51;13.10;77.80
46926;DHT22;32667;48.248;-1.700;2022-12-24T05:16:21;13.20;77.80
46926;DHT22;32667;48.248;-1.700;2022-12-24T05:18:47;13.20;77.80
46926;DHT22;32667;48.248;-1.700;2022-12-24T05:21:15;13.10;77.70
46926;DHT22;32667;48.248;-1.700;2022-12-24T05:23:42;13.10;77.70
46926;DHT22;32667;48.248;-1.700;2022-12-24T05:26:30;13.10;77.70
46926;DHT22;32667;48.248;-1.700;2022-12-24T05:28:58;13.20;77.70
46926;DHT22;32667;48.248;-1.700;2022-12-24T05:31:25;13.20;77.60
46926;DHT22;32667;48.248;-1.700;2022-12-24T05:33:52;13.20;77.70
46926;DHT22;32667;48.248;-1.700;2022-12-24T05:36:19;13.20;77.60
46926;DHT22;32667;48.248;-1.700;2022-12-24T05:39:00;13.30;77.60
46926;DHT22;32667;48.248;-1.700;2022-12-24T05:41:27;13.20;77.50
46926;DHT22;32667;48.248;-1.700;2022-12-24T05:43:53;13.20;77.40
46926;DHT22;32667;48.248;-1.700;2022-12-24T05:46:21;13.30;77.50
46926;DHT22;32667;48.248;-1.700;2022-12-24T05:48:48;13.30;77.50
46926;DHT22;32667;48.248;-1.700;2022-12-24T05:51:15;13.30;77.50
46926;DHT22;32667;48.248;-1.700;2022-12-24T05:53:44;13.20;77.50
46926;DHT22;32667;48.248;-1.700;2022-12-24T05:56:15;13.20;77.50
46926;DHT22;32667;48.248;-1.700;2022-12-24T05:58:42;13.20;77.60
46926;DHT22;32667;48.248;-1.700;2022-12-24T06:01:09;13.20;77.60
46926;DHT22;32667;48.248;-1.700;2022-12-24T06:03:35;13.30;77.60
46926;DHT22;32667;48.248;-1.700;2022-12-24T06:08:35;13.30;77.60
46926;DHT22;32667;48.248;-1.700;2022-12-24T06:11:03;13.20;77.40
46926;DHT22;32667;48.248;-1.700;2022-12-24T06:13:32;13.20;77.50
46926;DHT22;32667;48.248;-1.700;2022-12-24T06:15:59;13.20;77.50
46926;DHT22;32667;48.248;-1.700;2022-12-24T06:18:28;13.20;77.60
46926;DHT22;32667;48.248;-1.700;2022-12-24T06:20:56;13.20;77.60
46926;DHT22;32667;48.248;-1.700;2022-12-24T06:23:22;13.10;77.60
46926;DHT22;32667;48.248;-1.700;2022-12-24T06:25:49;13.10;77.60
46926;DHT22;32667;48.248;-1.700;2022-12-24T06:28:27;13.10;77.70
46926;DHT22;32667;48.248;-1.700;2022-12-24T06:30:53;13.20;77.70
46926;DHT22;32667;48.248;-1.700;2022-12-24T06:33:19;13.10;77.50
46926;DHT22;32667;48.248;-1.700;2022-12-24T06:35:48;13.20;77.60
46926;DHT22;32667;48.248;-1.700;2022-12-24T06:38:15;13.10;77.50
46926;DHT22;32667;48.248;-1.700;2022-12-24T06:40:42;13.10;77.60
46926;DHT22;32667;48.248;-1.700;2022-12-24T06:43:09;13.10;77.60
46926;DHT22;32667;48.248;-1.700;2022-12-24T06:45:34;13.10;77.60
46926;DHT22;32667;48.248;-1.700;2022-12-24T06:48:23;13.10;77.60
46926;DHT22;32667;48.248;-1.700;2022-12-24T06:50:48;13.10;77.60
46926;DHT22;32667;48.248;-1.700;2022-12-24T06:53:18;13.10;77.70
46926;DHT22;32667;48.248;-1.700;2022-12-24T06:55:44;13.10;77.60
46926;DHT22;32667;48.248;-1.700;2022-12-24T06:58:11;13.10;77.70
46926;DHT22;32667;48.248;-1.700;2022-12-24T07:00:37;13.10;77.60
46926;DHT22;32667;48.248;-1.700;2022-12-24T07:03:03;13.10;77.60
46926;DHT22;32667;48.248;-1.700;2022-12-24T07:05:31;13.10;77.60
46926;DHT22;32667;48.248;-1.700;2022-12-24T07:07:56;13.10;77.50
46926;DHT22;32667;48.248;-1.700;2022-12-24T07:10:22;13.20;77.60
46926;DHT22;32667;48.248;-1.700;2022-12-24T07:12:48;13.20;77.60
46926;DHT22;32667;48.248;-1.700;2022-12-24T07:15:16;13.20;77.50
46926;DHT22;32667;48.248;-1.700;2022-12-24T07:17:42;13.20;77.50
46926;DHT22;32667;48.248;-1.700;2022-12-24T07:20:11;13.20;77.50
46926;DHT22;32667;48.248;-1.700;2022-12-24T07:22:38;13.10;77.50
46926;DHT22;32667;48.248;-1.700;2022-12-24T07:25:04;13.10;77.50
46926;DHT22;32667;48.248;-1.700;2022-12-24T07:27:29;13.10;77.60
46926;DHT22;32667;48.248;-1.700;2022-12-24T07:29:55;13.10;77.60
46926;DHT22;32667;48.248;-1.700;2022-12-24T07:32:21;13.10;77.70
46926;DHT22;32667;48.248;-1.700;2022-12-24T07:34:47;13.00;77.60
46926;DHT22;32667;48.248;-1.700;2022-12-24T07:37:13;13.10;77.80
46926;DHT22;32667;48.248;-1.700;2022-12-24T07:39:38;13.00;77.70
46926;DHT22;32667;48.248;-1.700;2022-12-24T07:42:04;13.00;77.80
46926;DHT22;32667;48.248;-1.700;2022-12-24T07:44:33;13.00;77.80
46926;DHT22;32667;48.248;-1.700;2022-12-24T07:46:58;13.00;77.80
46926;DHT22;32667;48.248;-1.700;2022-12-24T07:49:24;13.00;77.80
46926;DHT22;32667;48.248;-1.700;2022-12-24T07:51:50;13.00;77.80
46926;DHT22;32667;48.248;-1.700;2022-12-24T07:54:15;13.10;77.80
46926;DHT22;32667;48.248;-1.700;2022-12-24T07:56:41;13.10;77.80
46926;DHT22;32667;48.248;-1.700;2022-12-24T07:59:08;13.10;77.80
46926;DHT22;32667;48.248;-1.700;2022-12-24T08:01:40;13.10;77.80
46926;DHT22;32667;48.248;-1.700;2022-12-24T08:04:06;13.10;77.70
46926;DHT22;32667;48.248;-1.700;2022-12-24T08:06:32;13.10;77.70
46926;DHT22;32667;48.248;-1.700;2022-12-24T08:08:58;13.10;77.80
46926;DHT22;32667;48.248;-1.700;2022-12-24T08:11:23;13.10;77.70
46926;DHT22;32667;48.248;-1.700;2022-12-24T08:13:49;13.20;77.70
46926;DHT22;32667;48.248;-1.700;2022-12-24T08:16:15;13.20;77.60
46926;DHT22;32667;48.248;-1.700;2022-12-24T08:18:43;13.20;77.50
46926;DHT22;32667;48.248;-1.700;2022-12-24T08:21:09;13.30;77.50
46926;DHT22;32667;48.248;-1.700;2022-12-24T08:23:35;13.20;77.40
46926;DHT22;32667;48.248;-1.700;2022-12-24T08:26:08;13.30;77.40
46926;DHT22;32667;48.248;-1.700;2022-12-24T08:28:34;13.30;77.40
46926;DHT22;32667;48.248;-1.700;2022-12-24T08:31:00;13.40;77.40
46926;DHT22;32667;48.248;-1.700;2022-12-24T08:33:27;13.40;77.30
46926;DHT22;32667;48.248;-1.700;2022-12-24T08:35:54;13.40;77.30
46926;DHT22;32667;48.248;-1.700;2022-12-24T08:38:20;13.40;77.30
46926;DHT22;32667;48.248;-1.700;2022-12-24T08:40:47;13.40;77.30
46926;DHT22;32667;48.248;-1.700;2022-12-24T08:43:15;13.40;77.30
46926;DHT22;32667;48.248;-1.700;2022-12-24T08:45:41;13.40;77.30
46926;DHT22;32667;48.248;-1.700;2022-12-24T08:48:08;13.40;77.30
46926;DHT22;32667;48.248;-1.700;2022-12-24T08:50:37;13.40;77.30
46926;DHT22;32667;48.248;-1.700;2022-12-24T08:53:03;13.40;77.30
46926;DHT22;32667;48.248;-1.700;2022-12-24T08:55:28;13.40;77.40
46926;DHT22;32667;48.248;-1.700;2022-12-24T08:57:54;13.40;77.40
46926;DHT22;32667;48.248;-1.700;2022-12-24T09:00:20;13.40;77.40
46926;DHT22;32667;48.248;-1.700;2022-12-24T09:02:46;13.40;77.40
46926;DHT22;32667;48.248;-1.700;2022-12-24T09:05:12;13.40;77.40
46926;DHT22;32667;48.248;-1.700;2022-12-24T09:07:37;13.50;77.50
46926;DHT22;32667;48.248;-1.700;2022-12-24T09:10:03;13.50;77.50
46926;DHT22;32667;48.248;-1.700;2022-12-24T09:12:32;13.50;77.40
46926;DHT22;32667;48.248;-1.700;2022-12-24T09:14:58;13.50;77.40
46926;DHT22;32667;48.248;-1.700;2022-12-24T09:17:24;13.50;77.30
46926;DHT22;32667;48.248;-1.700;2022-12-24T09:19:49;13.50;77.30
46926;DHT22;32667;48.248;-1.700;2022-12-24T09:22:15;13.50;77.30
46926;DHT22;32667;48.248;-1.700;2022-12-24T09:24:44;13.50;77.20
46926;DHT22;32667;48.248;-1.700;2022-12-24T09:27:10;13.50;77.20
46926;DHT22;32667;48.248;-1.700;2022-12-24T09:29:36;13.50;77.20
46926;DHT22;32667;48.248;-1.700;2022-12-24T09:32:05;13.50;77.20
46926;DHT22;32667;48.248;-1.700;2022-12-24T09:34:33;13.60;77.30
46926;DHT22;32667;48.248;-1.700;2022-12-24T09:36:59;13.60;77.30
46926;DHT22;32667;48.248;-1.700;2022-12-24T09:39:27;13.60;77.20
46926;DHT22;32667;48.248;-1.700;2022-12-24T09:44:45;13.70;77.00
46926;DHT22;32667;48.248;-1.700;2022-12-24T09:47:54;13.70;76.90
46926;DHT22;32667;48.248;-1.700;2022-12-24T09:50:40;13.70;76.90
46926;DHT22;32667;48.248;-1.700;2022-12-24T09:53:40;13.70;76.90
46926;DHT22;32667;48.248;-1.700;2022-12-24T09:56:16;13.70;76.90
46926;DHT22;32667;48.248;-1.700;2022-12-24T10:01:18;13.70;77.00
46926;DHT22;32667;48.248;-1.700;2022-12-24T10:03:45;13.70;77.00
46926;DHT22;32667;48.248;-1.700;2022-12-24T10:06:19;13.80;77.00
46926;DHT22;32667;48.248;-1.700;2022-12-24T10:20:19;13.80;76.80
46926;DHT22;32667;48.248;-1.700;2022-12-24T10:22:59;13.80;76.90
46926;DHT22;32667;48.248;-1.700;2022-12-24T10:28:33;13.90;76.90
46926;DHT22;32667;48.248;-1.700;2022-12-24T10:31:06;13.90;76.70
46926;DHT22;32667;48.248;-1.700;2022-12-24T10:33:44;13.90;76.70
46926;DHT22;32667;48.248;-1.700;2022-12-24T10:36:15;13.90;76.80
46926;DHT22;32667;48.248;-1.700;2022-12-24T10:38:43;13.90;76.80
46926;DHT22;32667;48.248;-1.700;2022-12-24T10:41:11;13.90;76.80
46926;DHT22;32667;48.248;-1.700;2022-12-24T10:43:38;13.90;76.80
46926;DHT22;32667;48.248;-1.700;2022-12-24T10:46:15;13.90;76.70
46926;DHT22;32667;48.248;-1.700;2022-12-24T10:48:44;13.90;76.70
46926;DHT22;32667;48.248;-1.700;2022-12-24T10:51:27;13.90;76.70
46926;DHT22;32667;48.248;-1.700;2022-12-24T10:54:05;13.90;76.80
46926;DHT22;32667;48.248;-1.700;2022-12-24T10:56:31;14.00;76.80
46926;DHT22;32667;48.248;-1.700;2022-12-24T10:59:03;14.00;76.70
46926;DHT22;32667;48.248;-1.700;2022-12-24T11:01:46;14.10;76.70
46926;DHT22;32667;48.248;-1.700;2022-12-24T11:04:19;14.10;76.80
46926;DHT22;32667;48.248;-1.700;2022-12-24T11:07:05;14.10;76.70
46926;DHT22;32667;48.248;-1.700;2022-12-24T11:09:36;14.10;76.60
46926;DHT22;32667;48.248;-1.700;2022-12-24T11:12:05;14.20;76.60
46926;DHT22;32667;48.248;-1.700;2022-12-24T11:14:40;14.20;76.40
46926;DHT22;32667;48.248;-1.700;2022-12-24T11:17:06;14.20;76.40
46926;DHT22;32667;48.248;-1.700;2022-12-24T11:19:37;14.20;76.40
46926;DHT22;32667;48.248;-1.700;2022-12-24T11:22:23;14.20;76.40
46926;DHT22;32667;48.248;-1.700;2022-12-24T11:25:06;14.20;76.40
46926;DHT22;32667;48.248;-1.700;2022-12-24T11:27:44;14.30;76.50
46926;DHT22;32667;48.248;-1.700;2022-12-24T11:33:23;14.30;76.40
46926;DHT22;32667;48.248;-1.700;2022-12-24T11:35:46;14.20;76.50
46926;DHT22;32667;48.248;-1.700;2022-12-24T11:41:19;14.20;76.70
46926;DHT22;32667;48.248;-1.700;2022-12-24T11:43:46;14.20;76.70
46926;DHT22;32667;48.248;-1.700;2022-12-24T11:46:18;14.10;76.80
46926;DHT22;32667;48.248;-1.700;2022-12-24T11:48:45;14.10;76.70
46926;DHT22;32667;48.248;-1.700;2022-12-24T11:51:23;14.10;76.90
46926;DHT22;32667;48.248;-1.700;2022-12-24T11:54:12;14.10;77.00
46926;DHT22;32667;48.248;-1.700;2022-12-24T11:56:43;14.20;76.90
46926;DHT22;32667;48.248;-1.700;2022-12-24T12:01:53;14.30;76.70
46926;DHT22;32667;48.248;-1.700;2022-12-24T12:04:28;14.30;76.70
46926;DHT22;32667;48.248;-1.700;2022-12-24T12:06:59;14.30;76.60
46926;DHT22;32667;48.248;-1.700;2022-12-24T12:12:35;14.30;76.60
46926;DHT22;32667;48.248;-1.700;2022-12-24T12:18:02;14.30;76.50
46926;DHT22;32667;48.248;-1.700;2022-12-24T12:20:31;14.30;76.60
46926;DHT22;32667;48.248;-1.700;2022-12-24T12:28:39;14.20;76.80
46926;DHT22;32667;48.248;-1.700;2022-12-24T12:33:48;14.30;76.80
46926;DHT22;32667;48.248;-1.700;2022-12-24T12:36:20;14.30;76.70
46926;DHT22;32667;48.248;-1.700;2022-12-24T12:38:47;14.30;76.60
46926;DHT22;32667;48.248;-1.700;2022-12-24T12:57:35;14.10;77.10
46926;DHT22;32667;48.248;-1.700;2022-12-24T13:00:05;14.10;77.00
46926;DHT22;32667;48.248;-1.700;2022-12-24T13:05:55;14.20;77.10
46926;DHT22;32667;48.248;-1.700;2022-12-24T13:11:53;14.30;76.90
46926;DHT22;32667;48.248;-1.700;2022-12-24T13:23:10;14.30;76.60
46926;DHT22;32667;48.248;-1.700;2022-12-24T13:25:42;14.40;76.60
46926;DHT22;32667;48.248;-1.700;2022-12-24T13:30:46;14.40;76.60
46926;DHT22;32667;48.248;-1.700;2022-12-24T13:33:44;14.50;76.60
46926;DHT22;32667;48.248;-1.700;2022-12-24T13:36:08;14.50;76.60
46926;DHT22;32667;48.248;-1.700;2022-12-24T13:38:47;14.50;76.50
46926;DHT22;32667;48.248;-1.700;2022-12-24T13:49:33;14.40;76.60
46926;DHT22;32667;48.248;-1.700;2022-12-24T14:08:07;14.40;76.70
46926;DHT22;32667;48.248;-1.700;2022-12-24T14:10:43;14.40;76.70
46926;DHT22;32667;48.248;-1.700;2022-12-24T14:22:38;14.30;76.80
46926;DHT22;32667;48.248;-1.700;2022-12-24T14:25:12;14.20;76.90
46926;DHT22;32667;48.248;-1.700;2022-12-24T14:32:39;14.20;77.10
46926;DHT22;32667;48.248;-1.700;2022-12-24T14:35:18;14.20;77.10
46926;DHT22;32667;48.248;-1.700;2022-12-24T14:37:51;14.20;77.10
46926;DHT22;32667;48.248;-1.700;2022-12-24T14:40:25;14.20;77.00
46926;DHT22;32667;48.248;-1.700;2022-12-24T14:45:44;14.20;77.10
46926;DHT22;32667;48.248;-1.700;2022-12-24T14:51:12;14.30;76.90
46926;DHT22;32667;48.248;-1.700;2022-12-24T14:54:04;14.30;76.90
46926;DHT22;32667;48.248;-1.700;2022-12-24T14:56:34;14.20;76.90
46926;DHT22;32667;48.248;-1.700;2022-12-24T14:59:02;14.20;77.00
46926;DHT22;32667;48.248;-1.700;2022-12-24T15:01:38;14.20;77.00
46926;DHT22;32667;48.248;-1.700;2022-12-24T15:04:14;14.20;77.00
46926;DHT22;32667;48.248;-1.700;2022-12-24T15:09:21;14.20;77.70
46926;DHT22;32667;48.248;-1.700;2022-12-24T15:11:50;14.20;77.10
46926;DHT22;32667;48.248;-1.700;2022-12-24T15:14:18;14.10;77.10
46926;DHT22;32667;48.248;-1.700;2022-12-24T15:17:04;14.10;77.70
46926;DHT22;32667;48.248;-1.700;2022-12-24T15:19:37;14.10;77.20
46926;DHT22;32667;48.248;-1.700;2022-12-24T15:22:08;14.10;77.30
46926;DHT22;32667;48.248;-1.700;2022-12-24T15:24:42;14.10;77.20
46926;DHT22;32667;48.248;-1.700;2022-12-24T15:27:17;14.10;77.30
46926;DHT22;32667;48.248;-1.700;2022-12-24T15:29:45;14.10;77.20
46926;DHT22;32667;48.248;-1.700;2022-12-24T15:32:13;14.10;77.20
46926;DHT22;32667;48.248;-1.700;2022-12-24T15:34:48;14.10;77.30
46926;DHT22;32667;48.248;-1.700;2022-12-24T15:37:30;14.10;77.10
46926;DHT22;32667;48.248;-1.700;2022-12-24T15:40:17;14.10;77.20
46926;DHT22;32667;48.248;-1.700;2022-12-24T15:42:44;14.10;77.10
46926;DHT22;32667;48.248;-1.700;2022-12-24T15:50:56;14.10;77.00
46926;DHT22;32667;48.248;-1.700;2022-12-24T15:53:32;14.10;77.60
46926;DHT22;32667;48.248;-1.700;2022-12-24T15:56:26;14.10;77.00
46926;DHT22;32667;48.248;-1.700;2022-12-24T15:59:11;14.10;77.00
46926;DHT22;32667;48.248;-1.700;2022-12-24T16:01:37;14.10;77.10
46926;DHT22;32667;48.248;-1.700;2022-12-24T16:04:14;14.00;77.20
46926;DHT22;32667;48.248;-1.700;2022-12-24T16:07:02;14.00;77.30
46926;DHT22;32667;48.248;-1.700;2022-12-24T16:09:40;13.90;77.30
46926;DHT22;32667;48.248;-1.700;2022-12-24T16:12:19;13.90;77.30
46926;DHT22;32667;48.248;-1.700;2022-12-24T16:14:55;13.90;77.40
46926;DHT22;32667;48.248;-1.700;2022-12-24T16:17:22;13.80;77.50
46926;DHT22;32667;48.248;-1.700;2022-12-24T16:19:51;13.90;77.40
46926;DHT22;32667;48.248;-1.700;2022-12-24T16:22:19;13.90;77.40
46926;DHT22;32667;48.248;-1.700;2022-12-24T16:25:24;13.90;77.40
46926;DHT22;32667;48.248;-1.700;2022-12-24T16:27:51;13.90;77.30
46926;DHT22;32667;48.248;-1.700;2022-12-24T16:30:18;13.80;77.20
46926;DHT22;32667;48.248;-1.700;2022-12-24T16:32:46;13.80;77.40
46926;DHT22;32667;48.248;-1.700;2022-12-24T16:35:26;13.80;77.40
46926;DHT22;32667;48.248;-1.700;2022-12-24T16:37:53;13.70;77.30
46926;DHT22;32667;48.248;-1.700;2022-12-24T16:40:19;13.80;77.40
46926;DHT22;32667;48.248;-1.700;2022-12-24T16:42:45;13.80;77.40
46926;DHT22;32667;48.248;-1.700;2022-12-24T16:45:29;13.80;77.40
46926;DHT22;32667;48.248;-1.700;2022-12-24T16:51:10;13.70;77.40
46926;DHT22;32667;48.248;-1.700;2022-12-24T16:53:35;13.70;77.50
46926;DHT22;32667;48.248;-1.700;2022-12-24T16:56:01;13.70;77.50
46926;DHT22;32667;48.248;-1.700;2022-12-24T16:58:27;13.70;77.60
46926;DHT22;32667;48.248;-1.700;2022-12-24T17:00:54;13.70;77.70
46926;DHT22;32667;48.248;-1.700;2022-12-24T17:03:20;13.70;77.70
46926;DHT22;32667;48.248;-1.700;2022-12-24T17:05:48;13.70;77.60
46926;DHT22;32667;48.248;-1.700;2022-12-24T17:08:14;13.80;77.60
46926;DHT22;32667;48.248;-1.700;2022-12-24T17:10:42;13.80;77.60
46926;DHT22;32667;48.248;-1.700;2022-12-24T17:13:13;13.80;77.60
46926;DHT22;32667;48.248;-1.700;2022-12-24T17:15:40;13.80;77.50
46926;DHT22;32667;48.248;-1.700;2022-12-24T17:18:23;13.80;77.40
46926;DHT22;32667;48.248;-1.700;2022-12-24T17:21:01;13.90;77.30
46926;DHT22;32667;48.248;-1.700;2022-12-24T17:23:28;13.90;77.20
46926;DHT22;32667;48.248;-1.700;2022-12-24T17:25:54;13.90;77.20
46926;DHT22;32667;48.248;-1.700;2022-12-24T17:28:20;13.90;77.20
46926;DHT22;32667;48.248;-1.700;2022-12-24T17:30:46;13.90;77.30
46926;DHT22;32667;48.248;-1.700;2022-12-24T17:33:12;13.90;77.40
46926;DHT22;32667;48.248;-1.700;2022-12-24T17:35:42;13.90;77.40
46926;DHT22;32667;48.248;-1.700;2022-12-24T17:41:30;13.80;77.40
46926;DHT22;32667;48.248;-1.700;2022-12-24T17:43:55;13.80;77.40
46926;DHT22;32667;48.248;-1.700;2022-12-24T17:46:22;13.80;77.40
46926;DHT22;32667;48.248;-1.700;2022-12-24T17:48:50;13.80;77.50
46926;DHT22;32667;48.248;-1.700;2022-12-24T17:51:19;13.90;77.40
46926;DHT22;32667;48.248;-1.700;2022-12-24T17:53:45;13.80;77.40
46926;DHT22;32667;48.248;-1.700;2022-12-24T17:56:11;13.90;77.30
46926;DHT22;32667;48.248;-1.700;2022-12-24T17:58:39;13.90;77.20
46926;DHT22;32667;48.248;-1.700;2022-12-24T18:01:12;13.90;77.20
46926;DHT22;32667;48.248;-1.700;2022-12-24T18:03:40;13.90;77.30
46926;DHT22;32667;48.248;-1.700;2022-12-24T18:06:08;13.80;77.30
46926;DHT22;32667;48.248;-1.700;2022-12-24T18:08:34;13.80;77.40
46926;DHT22;32667;48.248;-1.700;2022-12-24T18:11:09;13.70;77.30
46926;DHT22;32667;48.248;-1.700;2022-12-24T18:13:35;13.70;77.40
46926;DHT22;32667;48.248;-1.700;2022-12-24T18:16:01;13.70;77.40
46926;DHT22;32667;48.248;-1.700;2022-12-24T18:18:35;13.70;77.50
46926;DHT22;32667;48.248;-1.700;2022-12-24T18:21:01;13.70;77.50